Republic, Ohio
Current Conditions -  °F | °C
As of 6:13 AM on Saturday 01 Nov 2014 (Local Time) from KPCW Reporting Station
Overcast Overcast  
Wind Chill: -3°   Ceiling: 1500
Heat Index:   Visibility: 10mi
Dew Point:   Wind: 22mph
Humidity: 87%   Direction: 10°N
Pressure: 30.11"   Gusts: 30mph
Location:  41.12°N, 83.02°W
Report Text: KPCW 011013Z AUTO 01019G26KT 10SM BKN015 OVC021 03/01 A3011 RMK AO2 PK
Loading
Personal Weather Stations






























Interactive Weather Map
Tropical Storm Tracking
New forecast layout! Learn more

10-Day Weather Forecast

Advertisements
Track Severe Weather on mobile